createdAt,value
2018-10-21T00:00:04.228Z,93.10
2018-10-21T00:02:32.380Z,93.00
2018-10-21T00:05:00.526Z,93.10
2018-10-21T00:07:28.658Z,93.20
2018-10-21T00:09:56.812Z,93.10
2018-10-21T00:12:24.957Z,93.00
2018-10-21T00:14:53.145Z,93.30
2018-10-21T00:17:21.382Z,92.90
2018-10-21T00:19:49.522Z,92.90
2018-10-21T00:22:17.678Z,92.90
2018-10-21T00:24:45.838Z,93.20
2018-10-21T00:27:14.092Z,92.90
2018-10-21T00:29:42.153Z,92.90
2018-10-21T00:32:10.290Z,93.10
2018-10-21T00:34:38.383Z,93.30
2018-10-21T00:37:06.586Z,93.50
2018-10-21T00:39:34.681Z,93.50
2018-10-21T00:42:02.778Z,93.20
2018-10-21T00:44:30.854Z,93.40
2018-10-21T00:46:58.950Z,93.30
2018-10-21T00:49:27.114Z,93.40
2018-10-21T00:51:55.257Z,93.70
2018-10-21T00:54:23.366Z,93.40
2018-10-21T00:56:51.486Z,93.80
2018-10-21T00:59:19.611Z,93.50
2018-10-21T01:01:47.718Z,93.70
2018-10-21T01:04:15.912Z,93.80
2018-10-21T01:06:43.923Z,93.30
2018-10-21T01:09:13.207Z,93.80
2018-10-21T01:11:42.267Z,94.00
2018-10-21T01:14:10.486Z,93.50
2018-10-21T01:16:38.575Z,93.30
2018-10-21T01:19:06.923Z,93.30
2018-10-21T01:21:35.496Z,93.10
2018-10-21T01:24:03.610Z,93.30
2018-10-21T01:26:31.715Z,93.10
2018-10-21T01:28:59.824Z,93.30
2018-10-21T01:31:27.920Z,93.30
2018-10-21T01:33:56.031Z,93.70
2018-10-21T01:36:24.504Z,93.70
2018-10-21T01:38:52.491Z,93.50
2018-10-21T01:41:20.609Z,93.70
2018-10-21T01:43:48.717Z,93.90
2018-10-21T01:46:16.846Z,93.90
2018-10-21T01:48:44.959Z,93.80
2018-10-21T01:51:13.132Z,94.10
2018-10-21T01:53:41.141Z,94.10
2018-10-21T01:56:09.327Z,93.70
2018-10-21T01:58:37.462Z,93.80
2018-10-21T02:01:05.782Z,94.00
2018-10-21T02:03:33.934Z,94.20
2018-10-21T02:06:02.136Z,94.90
2018-10-21T02:08:30.337Z,94.10
2018-10-21T02:10:58.626Z,94.10
2018-10-21T02:13:26.770Z,94.10
2018-10-21T02:15:54.914Z,94.10
2018-10-21T02:18:23.068Z,93.50
2018-10-21T02:20:51.226Z,93.60
2018-10-21T02:23:19.390Z,93.60
2018-10-21T02:25:47.522Z,93.60
2018-10-21T02:28:15.670Z,93.40
2018-10-21T02:30:43.810Z,93.30
2018-10-21T02:33:12.075Z,93.40
2018-10-21T02:35:40.074Z,93.90
2018-10-21T02:38:08.169Z,93.90
2018-10-21T02:41:46.386Z,93.80
2018-10-21T02:44:15.746Z,94.40
2018-10-21T02:46:44.546Z,94.10
2018-10-21T02:49:13.291Z,93.80
2018-10-21T02:51:41.474Z,93.60
2018-10-21T02:54:10.016Z,93.30
2018-10-21T02:56:38.068Z,93.20
2018-10-21T02:59:06.469Z,93.80
2018-10-21T03:01:34.570Z,93.50
2018-10-21T03:04:02.847Z,93.40
2018-10-21T03:06:31.006Z,93.10
2018-10-21T03:08:59.164Z,93.20
2018-10-21T03:11:27.220Z,93.40
2018-10-21T03:13:55.292Z,93.70
2018-10-21T03:16:23.377Z,93.90
2018-10-21T03:18:51.599Z,93.50
2018-10-21T03:21:19.807Z,93.60
2018-10-21T03:23:47.954Z,93.80
2018-10-21T03:26:16.059Z,93.90
2018-10-21T03:28:44.200Z,93.90
2018-10-21T03:31:12.282Z,94.10
2018-10-21T03:33:40.493Z,94.20
2018-10-21T03:36:08.599Z,94.50
2018-10-21T03:38:36.756Z,94.30
2018-10-21T03:41:04.888Z,94.10
2018-10-21T03:43:33.029Z,94.10
2018-10-21T03:46:01.287Z,94.00
2018-10-21T03:48:29.363Z,93.90
2018-10-21T03:50:57.454Z,94.00
2018-10-21T03:53:25.615Z,93.70
2018-10-21T03:55:53.731Z,94.00
2018-10-21T03:58:21.841Z,94.20
2018-10-21T04:00:50.121Z,94.30
2018-10-21T04:03:18.271Z,94.30
2018-10-21T04:05:46.348Z,94.00
2018-10-21T04:08:14.478Z,93.70
2018-10-21T04:10:42.559Z,93.60
2018-10-21T04:13:10.778Z,93.80
2018-10-21T04:15:38.892Z,94.00
2018-10-21T04:18:07.046Z,93.70
2018-10-21T04:20:35.237Z,93.80
2018-10-21T04:23:04.083Z,93.90
2018-10-21T04:25:33.666Z,94.00
2018-10-21T04:28:02.786Z,94.20
2018-10-21T04:30:31.842Z,94.30
2018-10-21T04:34:03.296Z,93.90
2018-10-21T04:36:32.678Z,93.60
2018-10-21T04:39:17.796Z,93.70
2018-10-21T04:41:46.014Z,93.30
2018-10-21T04:44:14.109Z,93.70
2018-10-21T04:46:42.329Z,93.80
2018-10-21T04:49:10.357Z,94.70
2018-10-21T04:51:38.490Z,94.20
2018-10-21T04:54:06.600Z,94.70
2018-10-21T04:56:34.767Z,94.30
2018-10-21T04:59:02.926Z,94.50
2018-10-21T05:01:31.042Z,94.40
2018-10-21T05:03:59.254Z,94.30
2018-10-21T05:06:27.539Z,94.60
2018-10-21T05:08:55.706Z,94.80
2018-10-21T05:11:23.863Z,94.60
2018-10-21T05:13:52.063Z,94.40
2018-10-21T05:16:20.341Z,94.70
2018-10-21T05:18:48.482Z,94.10
2018-10-21T05:21:16.670Z,94.00
2018-10-21T05:23:44.836Z,94.20
2018-10-21T05:26:13.545Z,94.00
2018-10-21T05:28:41.848Z,94.10
2018-10-21T05:31:09.974Z,94.40
2018-10-21T05:33:38.254Z,94.30
2018-10-21T05:36:06.470Z,94.30
2018-10-21T05:38:34.714Z,94.50
2018-10-21T05:41:02.886Z,94.20
2018-10-21T05:43:31.082Z,94.40
2018-10-21T05:45:59.236Z,93.70
2018-10-21T05:48:27.386Z,93.60
2018-10-21T05:50:55.568Z,93.90
2018-10-21T05:53:23.819Z,93.90
2018-10-21T05:55:52.039Z,94.50
2018-10-21T05:58:20.360Z,94.80
2018-10-21T06:00:48.466Z,94.60
2018-10-21T06:03:16.675Z,94.70
2018-10-21T06:05:46.998Z,94.30
2018-10-21T06:08:15.162Z,94.10
2018-10-21T06:10:43.861Z,93.90
2018-10-21T06:13:12.294Z,94.60
2018-10-21T06:15:40.615Z,94.30
2018-10-21T06:18:12.979Z,94.90
2018-10-21T06:20:45.421Z,95.20
2018-10-21T06:23:13.597Z,94.90
2018-10-21T06:25:41.727Z,95.00
2018-10-21T06:28:09.887Z,94.90
2018-10-21T06:30:38.072Z,94.60
2018-10-21T06:33:06.333Z,94.30
2018-10-21T06:35:34.545Z,94.20
2018-10-21T06:38:02.733Z,94.30
2018-10-21T06:40:30.858Z,94.60
2018-10-21T06:42:59.003Z,94.60
2018-10-21T06:45:27.237Z,94.60
2018-10-21T06:47:55.331Z,94.60
2018-10-21T06:50:23.486Z,94.60
2018-10-21T06:52:51.631Z,94.50
2018-10-21T06:55:19.766Z,94.60
2018-10-21T06:57:48.016Z,94.70
2018-10-21T07:00:16.102Z,94.70
2018-10-21T07:02:44.257Z,94.60
2018-10-21T07:05:24.045Z,94.70
2018-10-21T07:07:52.493Z,95.10
2018-10-21T07:10:21.082Z,95.10
2018-10-21T07:12:49.242Z,95.00
2018-10-21T07:15:17.713Z,95.50
2018-10-21T07:17:45.990Z,95.30
2018-10-21T07:20:14.202Z,95.50
2018-10-21T07:22:43.492Z,95.60
2018-10-21T07:25:11.614Z,95.70
2018-10-21T07:27:40.207Z,95.50
2018-10-21T07:30:09.846Z,95.40
2018-10-21T07:32:38.350Z,95.30
2018-10-21T07:35:07.930Z,95.60
2018-10-21T07:37:36.006Z,95.20
2018-10-21T07:40:04.423Z,95.40
2018-10-21T07:42:32.507Z,95.20
2018-10-21T07:45:00.587Z,95.20
2018-10-21T07:47:28.679Z,95.30
2018-10-21T07:49:56.914Z,95.60
2018-10-21T07:52:25.246Z,95.30
2018-10-21T07:54:53.527Z,95.60
2018-10-21T07:57:21.642Z,95.20
2018-10-21T07:59:49.763Z,94.70
2018-10-21T08:02:17.870Z,94.90
2018-10-21T08:04:45.986Z,94.90
2018-10-21T08:07:25.506Z,94.90
2018-10-21T08:09:53.661Z,95.50
2018-10-21T08:12:21.733Z,96.00
2018-10-21T08:14:49.936Z,96.50
2018-10-21T08:17:18.062Z,96.40
2018-10-21T08:19:46.226Z,97.00
2018-10-21T08:22:14.424Z,97.00
2018-10-21T08:24:42.490Z,97.80
2018-10-21T08:27:10.649Z,97.60
2018-10-21T08:29:38.752Z,98.60
2018-10-21T08:32:06.879Z,98.60
2018-10-21T08:34:35.054Z,97.80
2018-10-21T08:37:03.225Z,97.80
2018-10-21T08:39:31.370Z,97.70
2018-10-21T08:41:59.490Z,97.10
2018-10-21T08:44:27.616Z,97.80
2018-10-21T08:46:55.746Z,98.10
2018-10-21T08:49:23.913Z,98.20
2018-10-21T08:51:51.970Z,98.70
2018-10-21T08:54:20.099Z,99.00
2018-10-21T08:56:48.466Z,98.70
2018-10-21T08:59:16.590Z,99.90
2018-10-21T09:01:44.734Z,99.30
2018-10-21T09:04:12.916Z,98.80
2018-10-21T09:06:41.158Z,97.00
2018-10-21T09:09:10.629Z,97.70
2018-10-21T09:11:38.755Z,99.20
2018-10-21T09:14:06.959Z,96.80
2018-10-21T09:16:35.160Z,98.00
2018-10-21T09:19:03.239Z,97.70
2018-10-21T09:21:31.398Z,96.50
2018-10-21T09:23:59.538Z,95.50
2018-10-21T09:26:27.663Z,95.90
2018-10-21T09:28:55.845Z,94.00
2018-10-21T09:31:24.058Z,92.80
2018-10-21T09:33:52.313Z,90.80
2018-10-21T09:36:20.538Z,91.30
2018-10-21T09:38:48.722Z,90.90
2018-10-21T09:41:17.071Z,89.60
2018-10-21T09:43:45.212Z,88.60
2018-10-21T09:46:13.473Z,88.90
2018-10-21T09:48:41.499Z,87.60
2018-10-21T09:51:09.667Z,87.10
2018-10-21T09:53:37.867Z,88.50
2018-10-21T09:56:06.046Z,87.00
2018-10-21T09:58:34.264Z,87.00
2018-10-21T10:01:07.897Z,85.10
2018-10-21T10:03:35.922Z,85.20
2018-10-21T10:06:04.007Z,85.10
2018-10-21T10:08:32.191Z,83.80
2018-10-21T10:11:00.270Z,83.80
2018-10-21T10:13:28.440Z,82.00
2018-10-21T10:15:56.645Z,81.10
2018-10-21T10:18:24.751Z,81.30
2018-10-21T10:20:52.946Z,79.40
2018-10-21T10:23:21.103Z,77.70
2018-10-21T10:25:49.159Z,77.70
2018-10-21T10:28:17.278Z,74.00
2018-10-21T10:30:45.551Z,76.90
2018-10-21T10:33:13.842Z,76.00
2018-10-21T10:35:42.131Z,75.20
2018-10-21T10:38:10.295Z,73.50
2018-10-21T10:40:38.563Z,72.10
2018-10-21T10:43:06.566Z,69.60
2018-10-21T10:45:34.595Z,64.10
2018-10-21T10:48:02.698Z,64.80
2018-10-21T10:50:30.801Z,59.80
2018-10-21T10:52:58.931Z,59.00
2018-10-21T10:55:32.627Z,59.00
2018-10-21T10:58:00.813Z,59.00
2018-10-21T11:00:28.943Z,57.20
2018-10-21T11:02:57.140Z,58.00
2018-10-21T11:05:25.275Z,57.50
2018-10-21T11:07:53.442Z,58.70
2018-10-21T11:10:21.575Z,60.20
2018-10-21T11:12:49.707Z,59.60
2018-10-21T11:15:17.942Z,61.00
2018-10-21T11:17:46.102Z,61.80
2018-10-21T11:20:14.274Z,63.20
2018-10-21T11:22:42.479Z,63.30
2018-10-21T11:25:10.587Z,62.70
2018-10-21T11:27:38.670Z,63.40
2018-10-21T11:30:07.078Z,63.70
2018-10-21T11:32:35.230Z,63.70
2018-10-21T11:35:03.465Z,64.60
2018-10-21T11:37:31.817Z,64.80
2018-10-21T11:40:00.919Z,64.70
2018-10-21T11:42:29.000Z,65.30
2018-10-21T11:44:57.123Z,64.10
2018-10-21T11:47:25.354Z,60.80
2018-10-21T11:49:53.478Z,62.00
2018-10-21T11:52:22.261Z,58.10
2018-10-21T11:54:50.371Z,57.40
2018-10-21T11:57:18.498Z,56.80
2018-10-21T11:59:46.670Z,56.50
2018-10-21T12:02:14.787Z,57.50
2018-10-21T12:04:43.050Z,57.80
2018-10-21T12:07:11.259Z,56.50
2018-10-21T12:09:39.306Z,56.10
2018-10-21T12:12:07.449Z,53.10
2018-10-21T12:14:35.570Z,51.40
2018-10-21T12:17:03.698Z,49.40
2018-10-21T12:19:31.824Z,44.50
2018-10-21T12:21:59.943Z,44.90
2018-10-21T12:24:28.089Z,44.60
2018-10-21T12:26:56.294Z,44.00
2018-10-21T12:29:24.436Z,43.30
2018-10-21T12:31:52.575Z,44.90
2018-10-21T12:34:20.693Z,45.20
2018-10-21T12:36:48.813Z,45.00
2018-10-21T12:39:17.029Z,45.80
2018-10-21T12:41:45.161Z,46.80
2018-10-21T12:44:13.274Z,47.00
2018-10-21T12:46:41.390Z,46.70
2018-10-21T12:49:09.575Z,46.10
2018-10-21T12:51:37.814Z,43.90
2018-10-21T12:54:06.251Z,41.30
2018-10-21T12:56:34.298Z,41.80
2018-10-21T12:59:02.423Z,42.80
2018-10-21T13:01:30.481Z,42.90
2018-10-21T13:03:58.599Z,41.90
2018-10-21T13:06:26.658Z,40.90
2018-10-21T13:08:54.786Z,39.80
2018-10-21T13:11:23.142Z,38.40
2018-10-21T13:13:51.215Z,38.10
2018-10-21T13:16:19.319Z,36.20
2018-10-21T13:18:47.394Z,36.10
2018-10-21T13:21:15.482Z,35.90
2018-10-21T13:23:43.625Z,34.80
2018-10-21T13:26:11.735Z,34.50
2018-10-21T13:28:39.843Z,33.50
2018-10-21T13:31:07.969Z,32.00
2018-10-21T13:33:36.006Z,31.90
2018-10-21T13:36:04.338Z,33.40
2018-10-21T13:38:32.459Z,35.80
2018-10-21T13:41:00.549Z,35.80
2018-10-21T13:43:28.629Z,38.00
2018-10-21T13:45:56.800Z,38.80
2018-10-21T13:48:24.804Z,38.90
2018-10-21T13:50:52.891Z,39.90
2018-10-21T13:53:21.043Z,40.40
2018-10-21T13:55:49.143Z,42.10
2018-10-21T13:58:17.527Z,43.50
2018-10-21T14:00:45.622Z,43.50
2018-10-21T14:03:13.667Z,42.80
2018-10-21T14:05:41.794Z,43.40
2018-10-21T14:08:09.927Z,43.10
2018-10-21T14:10:38.081Z,43.80
2018-10-21T14:13:06.560Z,44.40
2018-10-21T14:15:34.628Z,44.40
2018-10-21T14:18:02.763Z,44.70
2018-10-21T14:20:30.918Z,45.60
2018-10-21T14:22:59.070Z,45.90
2018-10-21T14:25:27.267Z,46.40
2018-10-21T14:27:55.394Z,46.70
2018-10-21T14:30:23.502Z,46.70
2018-10-21T14:32:51.683Z,47.10
2018-10-21T14:35:19.769Z,47.40
2018-10-21T14:37:47.909Z,48.50
2018-10-21T14:40:15.950Z,48.20
2018-10-21T14:42:44.036Z,48.10
2018-10-21T14:45:12.915Z,48.70
2018-10-21T14:47:41.303Z,48.50
2018-10-21T14:50:10.397Z,49.80
2018-10-21T14:52:38.495Z,49.40
2018-10-21T14:55:07.921Z,49.30
2018-10-21T14:57:36.044Z,49.80
2018-10-21T15:00:05.642Z,50.00
2018-10-21T15:02:33.727Z,49.30
2018-10-21T15:05:01.954Z,51.30
2018-10-21T15:07:30.186Z,51.20
2018-10-21T15:09:58.317Z,50.80
2018-10-21T15:12:26.601Z,51.90
2018-10-21T15:14:54.699Z,53.00
2018-10-21T15:17:22.772Z,52.80
2018-10-21T15:19:50.979Z,53.30
2018-10-21T15:22:19.138Z,54.60
2018-10-21T15:24:47.142Z,54.50
2018-10-21T15:27:15.228Z,54.70
2018-10-21T15:29:43.363Z,55.90
2018-10-21T15:32:11.542Z,56.90
2018-10-21T15:34:39.537Z,57.80
2018-10-21T15:37:07.630Z,57.80
2018-10-21T15:39:35.721Z,58.80
2018-10-21T15:42:03.931Z,60.00
2018-10-21T15:44:32.034Z,60.10
2018-10-21T15:47:00.133Z,60.20
2018-10-21T15:49:28.210Z,60.90
2018-10-21T15:51:56.393Z,60.70
2018-10-21T15:54:24.378Z,62.20
2018-10-21T15:56:52.458Z,62.60
2018-10-21T15:59:20.597Z,63.90
2018-10-21T16:01:48.754Z,64.00
2018-10-21T16:04:16.962Z,64.70
2018-10-21T16:06:45.147Z,65.20
2018-10-21T16:09:13.699Z,65.30
2018-10-21T16:11:41.930Z,65.10
2018-10-21T16:14:10.116Z,66.00
2018-10-21T16:16:38.186Z,65.90
2018-10-21T16:19:06.307Z,65.60
2018-10-21T16:21:34.470Z,66.50
2018-10-21T16:24:02.770Z,66.60
2018-10-21T16:26:30.966Z,67.10
2018-10-21T16:28:59.030Z,67.80
2018-10-21T16:31:27.297Z,68.40
2018-10-21T16:33:55.460Z,69.10
2018-10-21T16:36:23.625Z,69.60
2018-10-21T16:38:51.785Z,70.70
2018-10-21T16:41:20.962Z,70.70
2018-10-21T16:43:49.098Z,71.10
2018-10-21T16:46:17.295Z,72.10
2018-10-21T16:48:45.510Z,72.60
2018-10-21T16:51:14.009Z,73.80
2018-10-21T16:53:42.202Z,74.20
2018-10-21T16:56:10.319Z,74.40
2018-10-21T16:58:38.437Z,74.50
2018-10-21T17:01:06.778Z,74.60
2018-10-21T17:03:34.980Z,75.90
2018-10-21T17:06:03.191Z,75.30
2018-10-21T17:08:31.364Z,77.10
2018-10-21T17:10:59.538Z,78.30
2018-10-21T17:13:27.671Z,77.30
2018-10-21T17:15:55.841Z,77.50
2018-10-21T17:18:23.971Z,78.80
2018-10-21T17:20:52.149Z,79.60
2018-10-21T17:23:20.316Z,80.20
2018-10-21T17:25:48.446Z,80.10
2018-10-21T17:28:16.674Z,80.50
2018-10-21T17:30:44.826Z,80.90
2018-10-21T17:33:13.024Z,81.50
2018-10-21T17:35:41.323Z,81.40
2018-10-21T17:38:09.492Z,82.60
2018-10-21T17:40:37.687Z,82.90
2018-10-21T17:43:05.819Z,82.90
2018-10-21T17:45:33.896Z,82.90
2018-10-21T17:48:02.059Z,81.70
2018-10-21T17:50:30.192Z,82.70
2018-10-21T17:52:58.353Z,82.80
2018-10-21T17:55:26.477Z,83.50
2018-10-21T17:57:54.693Z,83.80
2018-10-21T18:00:22.771Z,83.90
2018-10-21T18:02:50.906Z,84.80
2018-10-21T18:05:19.214Z,86.10
2018-10-21T18:07:47.355Z,85.40
2018-10-21T18:10:15.722Z,85.30
2018-10-21T18:12:43.781Z,86.20
2018-10-21T18:15:12.289Z,86.20
2018-10-21T18:17:41.048Z,86.30
2018-10-21T18:20:10.378Z,86.80
2018-10-21T18:22:38.596Z,87.50
2018-10-21T18:25:07.657Z,85.80
2018-10-21T18:27:35.747Z,87.20
2018-10-21T18:30:03.982Z,87.40
2018-10-21T18:32:32.145Z,87.90
2018-10-21T18:35:00.258Z,88.10
2018-10-21T18:37:28.403Z,88.40
2018-10-21T18:39:56.563Z,88.40
2018-10-21T18:42:24.658Z,89.10
2018-10-21T18:44:52.812Z,89.30
2018-10-21T18:47:20.935Z,88.70
2018-10-21T18:49:49.059Z,88.60
2018-10-21T18:52:17.314Z,89.20
2018-10-21T18:54:45.318Z,90.00
2018-10-21T18:57:13.434Z,90.20
2018-10-21T18:59:41.638Z,89.30
2018-10-21T19:02:09.775Z,90.00
2018-10-21T19:04:37.975Z,89.70
2018-10-21T19:07:06.455Z,90.10
2018-10-21T19:09:34.512Z,90.00
2018-10-21T19:12:02.607Z,90.20
2018-10-21T19:14:30.849Z,90.40
2018-10-21T19:16:58.972Z,90.20
2018-10-21T19:19:27.083Z,90.60
2018-10-21T19:21:55.235Z,90.50
2018-10-21T19:24:23.374Z,90.90
2018-10-21T19:26:52.474Z,90.30
2018-10-21T19:29:20.603Z,90.40
2018-10-21T19:31:48.771Z,90.60
2018-10-21T19:34:17.021Z,90.70
2018-10-21T19:36:45.166Z,90.70
2018-10-21T19:39:13.862Z,91.20
2018-10-21T19:41:42.075Z,90.80
2018-10-21T19:44:10.911Z,90.90
2018-10-21T19:46:39.291Z,90.70
2018-10-21T19:49:07.993Z,90.70
2018-10-21T19:51:36.157Z,91.20
2018-10-21T19:54:04.687Z,91.10
2018-10-21T19:56:32.806Z,91.20
2018-10-21T19:59:02.755Z,91.40
2018-10-21T20:01:30.999Z,91.30
2018-10-21T20:03:59.139Z,91.10
2018-10-21T20:06:27.218Z,91.50
2018-10-21T20:08:55.331Z,91.80
2018-10-21T20:11:23.403Z,91.60
2018-10-21T20:13:51.639Z,91.60
2018-10-21T20:16:19.939Z,92.10
2018-10-21T20:18:48.011Z,91.60
2018-10-21T20:21:16.130Z,91.80
2018-10-21T20:23:44.267Z,91.90
2018-10-21T20:26:12.329Z,91.70
2018-10-21T20:28:40.406Z,91.90
2018-10-21T20:31:08.552Z,91.90
2018-10-21T20:33:36.662Z,92.10
2018-10-21T20:36:04.702Z,92.10
2018-10-21T20:38:32.779Z,91.90
2018-10-21T20:41:00.936Z,92.10
2018-10-21T20:43:28.989Z,92.00
2018-10-21T20:45:57.129Z,92.20
2018-10-21T20:48:25.253Z,92.20
2018-10-21T20:50:53.369Z,92.50
2018-10-21T20:53:21.510Z,92.50
2018-10-21T20:55:49.634Z,92.40
2018-10-21T20:58:17.789Z,92.40
2018-10-21T21:00:45.892Z,92.40
2018-10-21T21:03:14.095Z,92.50
2018-10-21T21:05:49.045Z,92.40
2018-10-21T21:08:23.719Z,92.40
2018-10-21T21:10:51.786Z,92.40
2018-10-21T21:13:19.857Z,92.50
2018-10-21T21:15:47.942Z,92.70
2018-10-21T21:18:16.154Z,92.80
2018-10-21T21:20:44.225Z,92.80
2018-10-21T21:23:12.167Z,92.70
2018-10-21T21:25:40.237Z,92.60
2018-10-21T21:28:08.651Z,92.70
2018-10-21T21:30:37.117Z,93.10
2018-10-21T21:33:05.563Z,92.80
2018-10-21T21:35:33.646Z,92.90
2018-10-21T21:38:01.789Z,93.00
2018-10-21T21:40:29.853Z,93.10
2018-10-21T21:42:58.775Z,92.80
2018-10-21T21:45:26.868Z,92.80
2018-10-21T21:47:55.051Z,92.80
2018-10-21T21:50:23.179Z,92.80
2018-10-21T21:52:51.305Z,92.70
2018-10-21T21:55:19.420Z,92.70
2018-10-21T21:57:47.534Z,92.90
2018-10-21T22:00:15.758Z,93.00
2018-10-21T22:02:43.880Z,93.00
2018-10-21T22:05:12.007Z,92.90
2018-10-21T22:07:40.734Z,93.20
2018-10-21T22:10:10.997Z,93.10
2018-10-21T22:12:39.097Z,93.50
2018-10-21T22:15:07.226Z,93.20
2018-10-21T22:17:35.463Z,93.40
2018-10-21T22:20:03.622Z,93.30
2018-10-21T22:22:31.746Z,93.50
2018-10-21T22:24:59.863Z,93.20
2018-10-21T22:27:28.029Z,93.40
2018-10-21T22:29:56.200Z,93.80
2018-10-21T22:32:24.279Z,93.50
2018-10-21T22:34:52.469Z,93.90
2018-10-21T22:37:20.594Z,93.90
2018-10-21T22:39:48.733Z,93.60
2018-10-21T22:42:17.029Z,93.30
2018-10-21T22:44:45.020Z,94.20
2018-10-21T22:47:13.182Z,94.20
2018-10-21T22:49:41.415Z,93.90
2018-10-21T22:54:42.882Z,93.60
2018-10-21T22:57:18.049Z,94.20
2018-10-21T22:59:47.350Z,94.20
2018-10-21T23:02:15.720Z,94.00
2018-10-21T23:04:44.074Z,93.60
2018-10-21T23:07:12.134Z,93.10
2018-10-21T23:09:40.205Z,93.10
2018-10-21T23:12:08.544Z,93.20
2018-10-21T23:14:36.667Z,93.50
2018-10-21T23:17:04.903Z,93.50
2018-10-21T23:19:49.718Z,93.30
2018-10-21T23:22:17.989Z,93.50
2018-10-21T23:24:45.919Z,93.50
2018-10-21T23:27:14.345Z,93.60
2018-10-21T23:29:43.226Z,93.60
2018-10-21T23:32:11.306Z,93.70
2018-10-21T23:34:39.398Z,93.50
2018-10-21T23:37:07.498Z,93.50
2018-10-21T23:39:35.579Z,93.40
2018-10-21T23:42:03.745Z,93.50
2018-10-21T23:44:31.846Z,93.50
2018-10-21T23:46:59.927Z,93.60
2018-10-21T23:49:28.010Z,93.50
2018-10-21T23:51:56.148Z,93.50
2018-10-21T23:54:24.263Z,93.40
2018-10-21T23:56:52.410Z,93.20
2018-10-21T23:59:20.538Z,93.40
